Nearby METAR Reports

 

EGSS - Stansted Airport, United Kingdom
Distance from station: NW 15mi, 24km
Updated: 23/11/2017 23:50
Clear
Clear
 Wind from NW
Wind: NW 2 mph , 4 km/h
Temperature: 7°C
Dew Point: 3°C
Humidity: 76%
Barometer: 1005 hPa
Clouds: Clear
Visibility: 6 miles , 10 km
2017/11/23 23:50 EGSS 232350Z AUTO 32002KT 9999 NCD 07/03 Q1005
EGMC - Southend-On-Sea, United Kingdom
Distance from station: SE 15mi, 25km
Updated: 23/11/2017 23:50
Clear
Clear
 Wind from SSW
Wind: SSW 12 mph , 19 km/h
Temperature: 8°C
Wind Chill: 4°C
Dew Point: 3°C
Humidity: 71%
Barometer: 1005 hPa
Summary: Clear
Visibility: greater than 7 miles , 10 km
2017/11/23 23:50 EGMC 232350Z 21010KT CAVOK 08/03 Q1005
 
EGLC - London City Airp, United Kingdom
Distance from station: SW 24mi, 39km
Updated: 23/11/2017 23:50
Clear
Clear
 Wind from SSW
Wind: SSW 8 mph , 13 km/h
Temperature: 9°C
Wind Chill: 7°C
Dew Point: 3°C
Humidity: 66%
Barometer: 1005 hPa
Clouds: Clear
Visibility: 6 miles , 10 km
2017/11/23 23:50 EGLC 232350Z AUTO 21007KT 9999 NCD 09/03 Q1005
EGUW - Wattisham Raf, United Kingdom
Distance from station: NE 34mi, 54km
Updated: 23/11/2017 23:50
Overcast
Overcast
 Wind from SW
Wind: SW 5 mph , 7 km/h
Temperature: 6°C
Wind Chill: 4°C
Dew Point: 4°C
Humidity: 87%
Barometer: 1005 hPa
Clouds: Overcast
Visibility: 6 miles , 10 km
Cloud details: Overcast 3353 m
2017/11/23 23:50 EGUW 232350Z AUTO 23004KT 9999 OVC110/// 06/04 Q1005
 
EGGW - Luton Airport, United Kingdom
Distance from station: WNW 37mi, 59km
Updated: 23/11/2017 23:50
Clear
Clear
 Wind from W
Wind: W 7 mph , 11 km/h
Temperature: 6°C
Wind Chill: 4°C
Dew Point: 3°C
Humidity: 81%
Barometer: 1005 hPa
Clouds: Clear
Visibility: 6 miles , 10 km
2017/11/23 23:50 EGGW 232350Z AUTO 26006KT 9999 NCD 06/03 Q1005
EGWU - Northolt Raf, United Kingdom
Distance from station: WSW 40mi, 64km
Updated: 23/11/2017 23:50
Overcast
Overcast
 Wind from NNW
Wind: NNW 2 mph , 4 km/h
Temperature: 7°C
Dew Point: 4°C
Humidity: 81%
Barometer: 1005 hPa
Clouds: Overcast
Visibility: 6 miles , 10 km
Cloud details: Overcast 3048 m
2017/11/23 23:50 EGWU 232350Z AUTO 34002KT 9999 // OVC100/// 07/04 Q1005